Terminal Aerodrome Forecast
Issued by NWS Wilmington, NC

Home | Current Version | Previous Version | Text Only | Print | Product List | Glossary On
Versions: 1 2 3 4 5 6 7 8 9 10 11 12 13 14
000
FTUS42 KILM 271100
TAFLBT
TAF
KLBT 271120Z 2712/2812 01004KT P6SM SKC
     FM271400 01008KT P6SM SKC
     FM271800 35007KT P6SM SKC
     FM280000 VRB01KT P6SM SKC=

USA.gov is the U.S. government's official web portal to all federal, state and local government web resources and services.